createdAt,value
2022-12-23T00:00:46.195Z,1.75
2022-12-23T00:03:12.942Z,4.10
2022-12-23T00:05:43.048Z,5.43
2022-12-23T00:08:09.531Z,1.60
2022-12-23T00:10:44.711Z,3.97
2022-12-23T00:13:33.223Z,2.70
2022-12-23T00:16:08.885Z,1.77
2022-12-23T00:18:35.849Z,3.28
2022-12-23T00:21:09.175Z,3.28
2022-12-23T00:23:38.512Z,1.35
2022-12-23T00:26:05.846Z,1.10
2022-12-23T00:28:37.531Z,1.63
2022-12-23T00:31:09.651Z,1.83
2022-12-23T00:33:41.904Z,2.83
2022-12-23T00:36:22.451Z,1.10
2022-12-23T00:39:07.680Z,2.25
2022-12-23T00:41:53.083Z,1.38
2022-12-23T00:44:19.834Z,1.60
2022-12-23T00:46:47.594Z,1.38
2022-12-23T00:49:34.377Z,1.70
2022-12-23T00:52:01.553Z,2.95
2022-12-23T00:54:28.632Z,1.25
2022-12-23T00:56:55.319Z,1.30
2022-12-23T00:59:21.754Z,2.42
2022-12-23T01:02:07.095Z,2.17
2022-12-23T01:04:52.272Z,2.13
2022-12-23T01:07:21.853Z,2.25
2022-12-23T01:09:51.121Z,3.97
2022-12-23T01:12:17.914Z,3.10
2022-12-23T01:14:46.152Z,2.70
2022-12-23T01:17:14.595Z,3.58
2022-12-23T01:19:41.113Z,2.85
2022-12-23T01:22:07.623Z,1.00
2022-12-23T01:24:34.076Z,2.67
2022-12-23T01:27:00.767Z,2.35
2022-12-23T01:29:28.773Z,2.15
2022-12-23T01:31:55.488Z,2.13
2022-12-23T01:34:26.000Z,2.83
2022-12-23T01:36:54.964Z,1.42
2022-12-23T01:39:24.321Z,2.20
2022-12-23T01:42:09.423Z,1.52
2022-12-23T01:44:48.058Z,2.58
2022-12-23T01:47:33.381Z,1.27
2022-12-23T01:50:08.997Z,2.30
2022-12-23T01:52:44.755Z,1.20
2022-12-23T01:55:14.147Z,2.08
2022-12-23T01:57:43.845Z,1.60
2022-12-23T02:00:30.569Z,1.67
2022-12-23T02:03:15.394Z,1.30
2022-12-23T02:05:44.752Z,1.20
2022-12-23T02:08:29.720Z,2.58
2022-12-23T02:11:19.781Z,2.13
2022-12-23T02:14:19.517Z,2.25
2022-12-23T02:16:55.092Z,2.90
2022-12-23T02:19:39.625Z,1.42
2022-12-23T02:22:30.705Z,2.63
2022-12-23T02:25:26.051Z,2.10
2022-12-23T02:28:28.143Z,2.55
2022-12-23T02:31:20.953Z,3.78
2022-12-23T02:34:01.233Z,1.83
2022-12-23T02:36:47.653Z,5.18
2022-12-23T02:39:30.943Z,2.35
2022-12-23T02:42:10.941Z,1.17
2022-12-23T02:44:47.671Z,1.20
2022-12-23T02:47:22.727Z,2.40
2022-12-23T02:49:54.288Z,1.25
2022-12-23T02:52:24.081Z,1.15
2022-12-23T02:54:55.944Z,4.68
2022-12-23T02:57:28.645Z,1.40
2022-12-23T03:00:00.818Z,2.28
2022-12-23T03:02:27.509Z,2.15
2022-12-23T03:04:54.134Z,1.60
2022-12-23T03:07:46.067Z,2.63
2022-12-23T03:10:42.448Z,2.58
2022-12-23T03:13:31.497Z,2.85
2022-12-23T03:16:22.818Z,2.95
2022-12-23T03:19:10.584Z,2.13
2022-12-23T03:21:52.640Z,2.10
2022-12-23T03:24:27.899Z,3.58
2022-12-23T03:27:01.309Z,3.78
2022-12-23T03:29:50.913Z,4.80
2022-12-23T03:32:18.469Z,5.22
2022-12-23T03:34:48.594Z,5.20
2022-12-23T03:37:19.049Z,5.40
2022-12-23T03:40:11.576Z,7.07
2022-12-23T03:42:42.121Z,5.85
2022-12-23T03:45:40.322Z,6.35
2022-12-23T03:48:29.880Z,8.27
2022-12-23T03:51:02.650Z,7.65
2022-12-23T03:53:34.969Z,6.97
2022-12-23T03:56:07.040Z,10.23
2022-12-23T03:58:36.427Z,9.68
2022-12-23T04:01:12.064Z,8.30
2022-12-23T04:03:50.658Z,10.63
2022-12-23T04:06:20.075Z,9.73
2022-12-23T04:08:48.914Z,10.15
2022-12-23T04:11:15.647Z,11.60
2022-12-23T04:13:42.202Z,8.32
2022-12-23T04:16:11.800Z,9.90
2022-12-23T04:18:38.304Z,11.55
2022-12-23T04:21:04.947Z,10.45
2022-12-23T04:23:31.449Z,10.55
2022-12-23T04:25:57.965Z,9.57
2022-12-23T04:28:24.472Z,8.13
2022-12-23T04:30:50.922Z,12.45
2022-12-23T04:33:17.657Z,9.85
2022-12-23T04:35:44.150Z,7.88
2022-12-23T04:38:10.626Z,6.97
2022-12-23T04:40:37.055Z,9.80
2022-12-23T04:43:03.520Z,6.50
2022-12-23T04:45:30.053Z,5.20
2022-12-23T04:47:56.487Z,5.18
2022-12-23T04:50:23.024Z,3.33
2022-12-23T04:52:49.458Z,4.93
2022-12-23T04:55:15.979Z,2.20
2022-12-23T04:57:42.458Z,3.22
2022-12-23T05:00:09.691Z,3.85
2022-12-23T05:02:36.277Z,4.45
2022-12-23T05:05:03.251Z,3.00
2022-12-23T05:07:30.181Z,5.03
2022-12-23T05:10:01.527Z,4.05
2022-12-23T05:12:31.368Z,2.67
2022-12-23T05:14:57.924Z,4.72
2022-12-23T05:17:24.567Z,2.00
2022-12-23T05:19:51.048Z,2.67
2022-12-23T05:22:17.598Z,1.90
2022-12-23T05:24:44.150Z,1.58
2022-12-23T05:27:10.670Z,1.77
2022-12-23T05:29:37.118Z,2.05
2022-12-23T05:32:03.914Z,2.95
2022-12-23T05:34:33.503Z,3.30
2022-12-23T05:37:00.030Z,1.65
2022-12-23T05:39:26.578Z,1.77
2022-12-23T05:41:53.029Z,1.60
2022-12-23T05:44:19.687Z,1.80
2022-12-23T05:46:49.027Z,4.43
2022-12-23T05:49:15.583Z,1.80
2022-12-23T05:51:45.341Z,2.08
2022-12-23T05:54:11.836Z,1.60
2022-12-23T05:56:38.310Z,2.15
2022-12-23T05:59:04.868Z,1.60
2022-12-23T06:01:31.334Z,3.47
2022-12-23T06:03:57.826Z,2.53
2022-12-23T06:06:24.680Z,3.50
2022-12-23T06:08:57.514Z,2.60
2022-12-23T06:11:25.975Z,4.63
2022-12-23T06:13:52.662Z,1.95
2022-12-23T06:16:19.252Z,2.85
2022-12-23T06:18:45.765Z,1.90
2022-12-23T06:21:12.237Z,2.03
2022-12-23T06:23:38.700Z,1.35
2022-12-23T06:26:05.405Z,1.50
2022-12-23T06:28:31.905Z,1.70
2022-12-23T06:30:58.365Z,1.55
2022-12-23T06:33:24.925Z,1.63
2022-12-23T06:35:51.478Z,2.38
2022-12-23T06:38:17.963Z,1.60
2022-12-23T06:40:44.437Z,2.13
2022-12-23T06:43:13.341Z,1.80
2022-12-23T06:45:40.524Z,2.05
2022-12-23T06:48:07.460Z,1.77
2022-12-23T06:50:37.088Z,1.92
2022-12-23T06:53:03.565Z,1.77
2022-12-23T06:55:30.046Z,2.13
2022-12-23T06:57:56.548Z,2.50
2022-12-23T07:00:23.177Z,2.15
2022-12-23T07:02:49.981Z,2.78
2022-12-23T07:05:17.094Z,2.33
2022-12-23T07:07:43.536Z,2.67
2022-12-23T07:10:10.315Z,2.63
2022-12-23T07:12:37.159Z,2.50
2022-12-23T07:15:04.283Z,1.80
2022-12-23T07:17:31.297Z,2.22
2022-12-23T07:19:57.784Z,2.50
2022-12-23T07:22:24.592Z,2.28
2022-12-23T07:24:51.090Z,3.15
2022-12-23T07:27:17.633Z,2.90
2022-12-23T07:29:44.337Z,4.78
2022-12-23T07:32:11.003Z,2.50
2022-12-23T07:34:37.468Z,2.30
2022-12-23T07:37:04.010Z,3.33
2022-12-23T07:39:30.608Z,2.50
2022-12-23T07:42:25.085Z,6.50
2022-12-23T07:44:43.623Z,3.80
2022-12-23T07:47:10.185Z,3.80
2022-12-23T07:49:36.635Z,6.65
2022-12-23T07:52:03.236Z,4.90
2022-12-23T07:54:29.707Z,4.75
2022-12-23T07:56:58.091Z,5.32
2022-12-23T07:59:27.576Z,6.63
2022-12-23T08:01:54.179Z,5.38
2022-12-23T08:04:20.962Z,6.28
2022-12-23T08:06:47.524Z,5.90
2022-12-23T08:09:14.168Z,7.65
2022-12-23T08:11:40.671Z,5.63
2022-12-23T08:14:07.615Z,7.30
2022-12-23T08:16:39.577Z,7.28
2022-12-23T08:19:12.999Z,7.97
2022-12-23T08:21:39.449Z,9.20
2022-12-23T08:24:09.098Z,5.70
2022-12-23T08:26:35.629Z,7.38
2022-12-23T08:29:02.992Z,4.88
2022-12-23T08:31:33.340Z,5.93
2022-12-23T08:34:01.274Z,4.40
2022-12-23T08:36:30.731Z,3.42
2022-12-23T08:39:03.045Z,3.70
2022-12-23T08:41:32.489Z,3.85
2022-12-23T08:43:59.560Z,4.47
2022-12-23T08:46:26.733Z,4.07
2022-12-23T08:48:53.971Z,3.92
2022-12-23T08:51:22.020Z,4.68
2022-12-23T08:53:48.806Z,4.07
2022-12-23T08:56:19.417Z,4.38
2022-12-23T08:58:47.454Z,8.35
2022-12-23T09:01:17.146Z,5.78
2022-12-23T09:03:44.604Z,6.10
2022-12-23T09:06:23.181Z,9.02
2022-12-23T09:08:53.857Z,6.75
2022-12-23T09:11:24.547Z,6.28
2022-12-23T09:13:54.325Z,6.65
2022-12-23T09:16:21.807Z,6.55
2022-12-23T09:18:48.343Z,7.78
2022-12-23T09:21:18.101Z,10.05
2022-12-23T09:23:44.653Z,10.55
2022-12-23T09:26:16.613Z,9.30
2022-12-23T09:31:11.830Z,8.93
2022-12-23T09:33:39.129Z,9.23
2022-12-23T09:36:06.646Z,7.95
2022-12-23T09:38:35.183Z,8.10
2022-12-23T09:41:22.931Z,7.55
2022-12-23T09:43:58.340Z,8.48
2022-12-23T09:46:28.784Z,8.32
2022-12-23T09:49:11.462Z,9.77
2022-12-23T09:51:38.381Z,7.63
2022-12-23T09:54:17.139Z,7.38
2022-12-23T09:56:51.333Z,9.13
2022-12-23T09:59:42.845Z,10.48
2022-12-23T10:02:46.994Z,8.32
2022-12-23T10:05:40.101Z,8.88
2022-12-23T10:08:22.089Z,12.95
2022-12-23T10:10:54.152Z,12.30
2022-12-23T10:13:41.169Z,11.18
2022-12-23T10:16:14.763Z,10.73
2022-12-23T10:18:53.374Z,13.77
2022-12-23T10:21:26.301Z,11.18
2022-12-23T10:23:55.738Z,11.60
2022-12-23T10:26:22.570Z,13.43
2022-12-23T10:28:50.948Z,13.45
2022-12-23T10:31:39.994Z,13.98
2022-12-23T10:34:22.665Z,12.27
2022-12-23T10:37:05.997Z,15.23
2022-12-23T10:39:43.009Z,11.77
2022-12-23T10:42:25.317Z,11.38
2022-12-23T10:45:00.992Z,12.35
2022-12-23T10:47:47.239Z,12.50
2022-12-23T10:50:34.577Z,17.95
2022-12-23T10:53:04.759Z,13.77
2022-12-23T10:55:35.768Z,10.32
2022-12-23T11:00:38.860Z,15.05
2022-12-23T11:03:20.682Z,9.02
2022-12-23T11:05:50.167Z,9.27
2022-12-23T11:08:17.359Z,13.52
2022-12-23T11:10:44.865Z,11.77
2022-12-23T11:13:23.362Z,9.15
2022-12-23T11:15:49.952Z,10.18
2022-12-23T11:18:19.544Z,7.85
2022-12-23T11:21:02.303Z,6.82
2022-12-23T11:23:31.349Z,12.85
2022-12-23T11:26:06.100Z,8.07
2022-12-23T11:28:35.340Z,9.77
2022-12-23T11:31:09.703Z,5.70
2022-12-23T11:33:40.288Z,6.20
2022-12-23T11:36:14.242Z,9.48
2022-12-23T11:39:02.104Z,8.80
2022-12-23T11:41:35.443Z,5.72
2022-12-23T11:44:07.390Z,8.95
2022-12-23T11:49:24.524Z,4.15
2022-12-23T11:52:17.234Z,6.22
2022-12-23T11:54:54.576Z,5.72
2022-12-23T11:57:38.429Z,5.07
2022-12-23T12:00:07.966Z,9.70
2022-12-23T12:02:42.930Z,8.60
2022-12-23T12:05:15.515Z,8.02
2022-12-23T12:07:46.156Z,5.07
2022-12-23T12:10:30.460Z,4.07
2022-12-23T12:13:01.433Z,3.60
2022-12-23T12:15:40.831Z,2.22
2022-12-23T12:18:11.500Z,3.80
2022-12-23T12:21:00.942Z,2.58
2022-12-23T12:23:46.052Z,2.42
2022-12-23T12:26:15.601Z,5.60
2022-12-23T12:28:44.964Z,2.50
2022-12-23T12:31:35.810Z,2.63
2022-12-23T12:34:02.203Z,3.33
2022-12-23T12:36:39.656Z,2.00
2022-12-23T12:39:15.677Z,2.00
2022-12-23T12:42:01.819Z,2.08
2022-12-23T12:44:47.991Z,2.88
2022-12-23T12:47:52.149Z,2.72
2022-12-23T12:50:25.111Z,7.65
2022-12-23T12:52:56.689Z,3.65
2022-12-23T12:55:29.700Z,2.50
2022-12-23T12:57:56.288Z,3.72
2022-12-23T13:00:23.888Z,2.33
2022-12-23T13:02:52.212Z,4.40
2022-12-23T13:05:54.795Z,2.58
2022-12-23T13:08:56.398Z,2.90
2022-12-23T13:11:48.175Z,2.60
2022-12-23T13:14:41.277Z,3.50
2022-12-23T13:17:23.055Z,4.05
2022-12-23T13:20:17.458Z,3.38
2022-12-23T13:22:50.360Z,5.43
2022-12-23T13:25:25.037Z,5.70
2022-12-23T13:27:58.251Z,5.07
2022-12-23T13:30:32.526Z,18.70
2022-12-23T13:33:14.378Z,262.17
2022-12-23T13:36:05.033Z,732.33
2022-12-23T13:39:04.812Z,993.90
2022-12-23T13:41:39.494Z,716.35
2022-12-23T13:44:09.613Z,1067.55
2022-12-23T13:46:57.963Z,282.05
2022-12-23T13:50:03.490Z,752.00
2022-12-23T13:52:47.613Z,400.30
2022-12-23T13:55:23.831Z,226.48
2022-12-23T13:58:05.939Z,778.00
2022-12-23T14:03:02.756Z,298.75
2022-12-23T14:05:45.293Z,816.28
2022-12-23T14:08:26.820Z,768.15
2022-12-23T14:11:11.794Z,252.13
2022-12-23T14:13:44.213Z,696.42
2022-12-23T14:16:19.545Z,585.33
2022-12-23T14:19:18.530Z,862.78
2022-12-23T14:21:48.433Z,662.38
2022-12-23T14:24:30.146Z,565.70
2022-12-23T14:27:02.528Z,982.20
2022-12-23T14:29:49.221Z,193.25
2022-12-23T14:32:23.984Z,687.90
2022-12-23T14:35:22.070Z,361.13
2022-12-23T14:38:10.511Z,382.73
2022-12-23T14:40:36.932Z,585.58
2022-12-23T14:43:21.950Z,1070.13
2022-12-23T14:45:54.716Z,722.85
2022-12-23T14:48:33.401Z,302.65
2022-12-23T14:51:09.146Z,623.63
2022-12-23T14:53:53.952Z,737.88
2022-12-23T14:56:38.751Z,490.27
2022-12-23T14:59:11.190Z,342.48
2022-12-23T15:01:46.451Z,102.00
2022-12-23T15:04:12.923Z,61.78
2022-12-23T15:06:53.433Z,512.33
2022-12-23T15:09:31.816Z,575.22
2022-12-23T15:12:06.451Z,88.30
2022-12-23T15:14:38.236Z,179.73
2022-12-23T15:17:33.104Z,284.35
2022-12-23T15:20:12.547Z,70.95
2022-12-23T15:22:44.599Z,60.17
2022-12-23T15:25:35.846Z,45.10
2022-12-23T15:28:03.852Z,38.95
2022-12-23T15:30:36.238Z,33.38
2022-12-23T15:33:27.816Z,38.28
2022-12-23T15:35:56.964Z,41.60
2022-12-23T15:38:30.593Z,93.32
2022-12-23T15:41:14.898Z,80.95
2022-12-23T15:43:42.660Z,207.20
2022-12-23T15:46:28.540Z,401.55
2022-12-23T15:48:56.712Z,688.75
2022-12-23T15:54:31.454Z,441.50
2022-12-23T15:56:59.554Z,744.40
2022-12-23T15:59:33.626Z,858.13
2022-12-23T16:05:07.831Z,747.03
2022-12-23T16:07:37.572Z,562.85
2022-12-23T16:10:14.094Z,1115.53
2022-12-23T16:12:41.317Z,746.40
2022-12-23T16:15:20.415Z,409.08
2022-12-23T16:17:47.082Z,509.20
2022-12-23T16:20:25.263Z,443.08
2022-12-23T16:22:54.284Z,420.48
2022-12-23T16:25:27.587Z,265.85
2022-12-23T16:28:06.246Z,449.95
2022-12-23T16:30:38.354Z,765.33
2022-12-23T16:33:30.950Z,124.10
2022-12-23T16:36:26.327Z,314.92
2022-12-23T16:38:56.340Z,70.32
2022-12-23T16:41:22.994Z,43.92
2022-12-23T16:43:52.470Z,34.63
2022-12-23T16:46:22.949Z,34.65
2022-12-23T16:48:55.948Z,32.70
2022-12-23T16:51:23.549Z,34.90
2022-12-23T16:53:52.441Z,358.77
2022-12-23T16:56:21.680Z,46.65
2022-12-23T16:58:48.143Z,77.13
2022-12-23T17:01:24.306Z,72.32
2022-12-23T17:03:51.497Z,57.60
2022-12-23T17:06:18.907Z,57.90
2022-12-23T17:08:45.434Z,701.70
2022-12-23T17:11:22.981Z,434.25
2022-12-23T17:13:49.964Z,403.08
2022-12-23T17:16:20.136Z,285.20
2022-12-23T17:18:51.259Z,126.05
2022-12-23T17:21:24.361Z,258.57
2022-12-23T17:23:53.197Z,83.63
2022-12-23T17:26:19.844Z,97.28
2022-12-23T17:28:46.309Z,436.98
2022-12-23T17:31:15.501Z,434.13
2022-12-23T17:33:42.788Z,251.50
2022-12-23T17:36:11.109Z,179.90
2022-12-23T17:38:37.834Z,546.15
2022-12-23T17:41:04.676Z,695.88
2022-12-23T17:43:31.338Z,126.00
2022-12-23T17:45:57.935Z,560.58
2022-12-23T17:48:31.080Z,432.33
2022-12-23T17:50:58.380Z,285.35
2022-12-23T17:53:24.869Z,79.38
2022-12-23T17:55:54.250Z,162.60
2022-12-23T17:58:20.710Z,128.60
2022-12-23T18:00:47.265Z,376.38
2022-12-23T18:03:23.327Z,191.43
2022-12-23T18:05:53.000Z,279.58
2022-12-23T18:08:23.843Z,218.00
2022-12-23T18:10:50.408Z,422.45
2022-12-23T18:13:19.427Z,648.30
2022-12-23T18:15:46.799Z,525.50
2022-12-23T18:18:24.110Z,177.70
2022-12-23T18:20:56.295Z,89.85
2022-12-23T18:23:25.619Z,262.35
2022-12-23T18:25:52.674Z,285.42
2022-12-23T18:28:19.221Z,168.23
2022-12-23T18:30:45.989Z,730.00
2022-12-23T18:33:13.318Z,488.67
2022-12-23T18:35:45.796Z,678.15
2022-12-23T18:38:12.970Z,363.33
2022-12-23T18:40:40.434Z,662.08
2022-12-23T18:43:07.397Z,481.58
2022-12-23T18:45:37.991Z,725.70
2022-12-23T18:48:07.222Z,342.40
2022-12-23T18:50:35.582Z,151.38
2022-12-23T18:53:03.148Z,359.73
2022-12-23T18:55:30.348Z,255.82
2022-12-23T18:57:58.472Z,672.08
2022-12-23T19:00:28.064Z,304.17
2022-12-23T19:02:55.509Z,42.58
2022-12-23T19:05:26.573Z,86.88
2022-12-23T19:07:55.367Z,26.50
2022-12-23T19:10:30.039Z,22.48
2022-12-23T19:12:56.544Z,18.98
2022-12-23T19:15:23.759Z,19.23
2022-12-23T19:17:53.309Z,28.00
2022-12-23T19:20:20.411Z,19.48
2022-12-23T19:22:48.123Z,19.33
2022-12-23T19:25:17.920Z,18.70
2022-12-23T19:27:45.355Z,23.92
2022-12-23T19:30:17.184Z,169.48
2022-12-23T19:32:44.903Z,271.85
2022-12-23T19:35:14.831Z,35.28
2022-12-23T19:37:42.212Z,197.38
2022-12-23T19:40:10.474Z,228.93
2022-12-23T19:42:40.508Z,70.47
2022-12-23T19:45:09.018Z,73.22
2022-12-23T19:47:36.160Z,42.30
2022-12-23T19:50:03.176Z,233.20
2022-12-23T19:52:30.001Z,92.65
2022-12-23T19:54:56.510Z,35.97
2022-12-23T19:57:24.493Z,26.95
2022-12-23T19:59:50.992Z,25.02
2022-12-23T20:02:18.088Z,34.10
2022-12-23T20:04:44.590Z,30.30
2022-12-23T20:07:11.141Z,42.17
2022-12-23T20:09:38.300Z,36.72
2022-12-23T20:12:07.952Z,147.88
2022-12-23T20:14:34.685Z,32.30
2022-12-23T20:17:01.392Z,35.33
2022-12-23T20:19:28.039Z,31.13
2022-12-23T20:21:54.549Z,37.72
2022-12-23T20:24:21.036Z,37.25
2022-12-23T20:26:47.883Z,37.35
2022-12-23T20:29:17.998Z,40.97
2022-12-23T20:31:44.571Z,46.67
2022-12-23T20:34:15.316Z,55.17
2022-12-23T20:36:41.819Z,40.45
2022-12-23T20:39:08.465Z,29.70
2022-12-23T20:41:34.946Z,15.10
2022-12-23T20:46:48.229Z,2.72
2022-12-23T20:49:14.792Z,1.90
2022-12-23T20:51:41.280Z,2.50
2022-12-23T20:54:08.042Z,5.07
2022-12-23T20:56:34.567Z,3.10
2022-12-23T20:59:03.759Z,5.30
2022-12-23T21:01:35.770Z,4.50
2022-12-23T21:04:07.485Z,3.97
2022-12-23T21:06:35.733Z,3.25
2022-12-23T21:09:04.847Z,2.53
2022-12-23T21:11:34.544Z,2.20
2022-12-23T21:14:06.166Z,2.92
2022-12-23T21:16:35.428Z,2.95
2022-12-23T21:19:02.230Z,3.13
2022-12-23T21:21:32.785Z,2.50
2022-12-23T21:24:02.170Z,2.67
2022-12-23T21:26:30.245Z,3.03
2022-12-23T21:29:01.218Z,3.08
2022-12-23T21:31:29.517Z,4.00
2022-12-23T21:33:56.270Z,3.67
2022-12-23T21:36:26.280Z,3.70
2022-12-23T21:38:53.279Z,4.28
2022-12-23T21:41:28.349Z,4.28
2022-12-23T21:43:56.789Z,4.20
2022-12-23T21:46:24.699Z,6.95
2022-12-23T21:48:55.819Z,4.75
2022-12-23T21:51:38.897Z,5.57
2022-12-23T21:54:07.275Z,8.07
2022-12-23T21:56:36.676Z,5.68
2022-12-23T21:59:06.372Z,7.00
2022-12-23T22:01:33.655Z,6.80
2022-12-23T22:04:00.346Z,8.30
2022-12-23T22:06:32.865Z,6.80
2022-12-23T22:08:59.786Z,7.45
2022-12-23T22:11:28.819Z,8.95
2022-12-23T22:13:59.968Z,7.97
2022-12-23T22:16:31.291Z,7.40
2022-12-23T22:18:59.315Z,7.47
2022-12-23T22:21:28.621Z,9.80
2022-12-23T22:23:56.557Z,11.45
2022-12-23T22:26:26.509Z,11.65
2022-12-23T22:28:57.874Z,8.73
2022-12-23T22:31:39.924Z,14.88
2022-12-23T22:34:07.687Z,10.57
2022-12-23T22:36:34.297Z,10.63
2022-12-23T22:39:07.573Z,11.15
2022-12-23T22:41:34.997Z,7.75
2022-12-23T22:44:01.467Z,10.55
2022-12-23T22:46:28.317Z,11.02
2022-12-23T22:48:55.241Z,9.10
2022-12-23T22:51:27.603Z,9.57
2022-12-23T22:53:55.476Z,5.38
2022-12-23T22:56:23.932Z,6.80
2022-12-23T22:58:53.913Z,12.15
2022-12-23T23:01:32.605Z,11.25
2022-12-23T23:04:01.548Z,9.95
2022-12-23T23:06:44.211Z,12.45
2022-12-23T23:09:19.601Z,14.55
2022-12-23T23:11:46.112Z,12.63
2022-12-23T23:14:13.168Z,13.25
2022-12-23T23:16:39.878Z,13.95
2022-12-23T23:19:10.139Z,13.80
2022-12-23T23:21:37.726Z,13.38
2022-12-23T23:24:05.334Z,18.10
2022-12-23T23:26:32.480Z,16.13
2022-12-23T23:28:58.930Z,19.05
2022-12-23T23:31:41.922Z,15.55
2022-12-23T23:34:09.191Z,14.90
2022-12-23T23:36:35.756Z,16.50
2022-12-23T23:39:02.276Z,13.95
2022-12-23T23:41:30.849Z,18.25
2022-12-23T23:44:03.901Z,15.45
2022-12-23T23:46:31.822Z,9.70
2022-12-23T23:48:58.660Z,8.88
2022-12-23T23:51:25.201Z,12.23
2022-12-23T23:53:51.741Z,12.38
2022-12-23T23:56:24.783Z,11.35
2022-12-23T23:58:55.226Z,13.43
